sensor_id;sensor_type;location;lat;lon;timestamp;pressure;altitude;pressure_sealevel;temperature;humidity
49515;BME280;35415;47.870;16.058;2023-12-29T00:01:17;97522.75;;;3.74;100.00
49515;BME280;35415;47.870;16.058;2023-12-29T00:03:45;97465.75;;;3.39;100.00
49515;BME280;35415;47.870;16.058;2023-12-29T00:06:12;97520.69;;;3.76;99.71
49515;BME280;35415;47.870;16.058;2023-12-29T00:08:41;97506.31;;;3.59;99.66
49515;BME280;35415;47.870;16.058;2023-12-29T00:11:16;97520.25;;;3.79;99.70
49515;BME280;35415;47.870;16.058;2023-12-29T00:13:45;97520.63;;;3.83;99.57
49515;BME280;35415;47.870;16.058;2023-12-29T00:16:13;97484.00;;;3.60;99.24
49515;BME280;35415;47.870;16.058;2023-12-29T00:18:40;97453.44;;;3.44;99.41
49515;BME280;35415;47.870;16.058;2023-12-29T00:21:07;97445.53;;;3.38;98.92
49515;BME280;35415;47.870;16.058;2023-12-29T00:23:36;97515.84;;;3.91;98.39
49515;BME280;35415;47.870;16.058;2023-12-29T00:26:04;97520.56;;;3.89;98.52
49515;BME280;35415;47.870;16.058;2023-12-29T00:28:33;97511.13;;;3.93;98.29
49515;BME280;35415;47.870;16.058;2023-12-29T00:31:04;97517.47;;;3.92;98.50
49515;BME280;35415;47.870;16.058;2023-12-29T00:33:31;97522.34;;;3.96;98.56
49515;BME280;35415;47.870;16.058;2023-12-29T00:35:59;97516.88;;;3.90;98.19
49515;BME280;35415;47.870;16.058;2023-12-29T00:38:26;97463.31;;;3.62;98.02
49515;BME280;35415;47.870;16.058;2023-12-29T00:40:54;97467.97;;;3.67;97.70
49515;BME280;35415;47.870;16.058;2023-12-29T00:43:21;97521.31;;;3.97;97.77
49515;BME280;35415;47.870;16.058;2023-12-29T00:45:48;97504.38;;;3.91;97.92
49515;BME280;35415;47.870;16.058;2023-12-29T00:48:17;97506.59;;;3.94;98.35
49515;BME280;35415;47.870;16.058;2023-12-29T00:50:44;97456.13;;;3.62;97.70
49515;BME280;35415;47.870;16.058;2023-12-29T00:53:11;97466.94;;;3.68;97.98
49515;BME280;35415;47.870;16.058;2023-12-29T00:55:39;97467.09;;;3.73;97.87
49515;BME280;35415;47.870;16.058;2023-12-29T00:58:09;97440.94;;;3.45;97.70
49515;BME280;35415;47.870;16.058;2023-12-29T01:00:36;97477.91;;;3.78;97.77
49515;BME280;35415;47.870;16.058;2023-12-29T01:03:04;97442.09;;;3.55;97.67
49515;BME280;35415;47.870;16.058;2023-12-29T01:05:33;97456.56;;;3.59;97.60
49515;BME280;35415;47.870;16.058;2023-12-29T01:08:02;97540.91;;;4.02;97.44
49515;BME280;35415;47.870;16.058;2023-12-29T01:10:29;97540.28;;;4.07;97.05
49515;BME280;35415;47.870;16.058;2023-12-29T01:12:59;97538.75;;;3.92;97.14
49515;BME280;35415;47.870;16.058;2023-12-29T01:15:26;97540.50;;;4.05;96.90
49515;BME280;35415;47.870;16.058;2023-12-29T01:17:57;97528.84;;;4.00;97.10
49515;BME280;35415;47.870;16.058;2023-12-29T01:20:24;97509.94;;;3.89;96.80
49515;BME280;35415;47.870;16.058;2023-12-29T01:22:53;97471.75;;;3.52;96.26
49515;BME280;35415;47.870;16.058;2023-12-29T01:25:20;97516.28;;;3.88;96.85
49515;BME280;35415;47.870;16.058;2023-12-29T01:27:49;97475.03;;;3.54;96.77
49515;BME280;35415;47.870;16.058;2023-12-29T01:30:17;97516.28;;;3.88;96.97
49515;BME280;35415;47.870;16.058;2023-12-29T01:32:47;97467.97;;;3.42;96.87
49515;BME280;35415;47.870;16.058;2023-12-29T01:35:14;97561.72;;;4.12;96.68
49515;BME280;35415;47.870;16.058;2023-12-29T01:37:42;97494.56;;;3.67;96.47
49515;BME280;35415;47.870;16.058;2023-12-29T01:40:12;97523.00;;;3.91;97.01
49515;BME280;35415;47.870;16.058;2023-12-29T01:42:40;97507.75;;;3.80;97.10
49515;BME280;35415;47.870;16.058;2023-12-29T01:45:19;97553.59;;;4.07;97.32
49515;BME280;35415;47.870;16.058;2023-12-29T01:47:47;97534.19;;;4.00;97.16
49515;BME280;35415;47.870;16.058;2023-12-29T01:50:14;97560.03;;;4.17;97.11
49515;BME280;35415;47.870;16.058;2023-12-29T01:52:42;97554.47;;;4.19;96.96
49515;BME280;35415;47.870;16.058;2023-12-29T01:55:15;97555.09;;;4.21;96.51
49515;BME280;35415;47.870;16.058;2023-12-29T01:57:45;97474.78;;;3.81;96.19
49515;BME280;35415;47.870;16.058;2023-12-29T02:00:15;97478.44;;;3.86;95.75
49515;BME280;35415;47.870;16.058;2023-12-29T02:02:43;97487.69;;;4.02;95.88
49515;BME280;35415;47.870;16.058;2023-12-29T02:05:13;97511.13;;;4.12;96.06
49515;BME280;35415;47.870;16.058;2023-12-29T02:07:43;97529.66;;;4.25;96.39
49515;BME280;35415;47.870;16.058;2023-12-29T02:10:15;97538.31;;;4.20;96.24
49515;BME280;35415;47.870;16.058;2023-12-29T02:12:44;97523.78;;;4.16;96.59
49515;BME280;35415;47.870;16.058;2023-12-29T02:15:13;97499.34;;;4.01;96.57
49515;BME280;35415;47.870;16.058;2023-12-29T02:17:44;97505.81;;;4.12;96.58
49515;BME280;35415;47.870;16.058;2023-12-29T02:20:13;97485.91;;;3.96;96.59
49515;BME280;35415;47.870;16.058;2023-12-29T02:22:40;97506.41;;;4.14;96.86
49515;BME280;35415;47.870;16.058;2023-12-29T02:25:11;97511.94;;;4.12;96.68
49515;BME280;35415;47.870;16.058;2023-12-29T02:27:46;97468.53;;;3.93;97.15
49515;BME280;35415;47.870;16.058;2023-12-29T02:30:22;97514.63;;;4.12;97.07
49515;BME280;35415;47.870;16.058;2023-12-29T02:32:53;97435.66;;;3.63;97.19
49515;BME280;35415;47.870;16.058;2023-12-29T02:35:23;97436.81;;;3.74;96.96
49515;BME280;35415;47.870;16.058;2023-12-29T02:37:52;97490.19;;;3.97;97.01
49515;BME280;35415;47.870;16.058;2023-12-29T02:40:21;97482.00;;;3.99;96.93
49515;BME280;35415;47.870;16.058;2023-12-29T02:42:49;97483.16;;;4.03;97.04
49515;BME280;35415;47.870;16.058;2023-12-29T02:45:17;97446.63;;;3.73;97.13
49515;BME280;35415;47.870;16.058;2023-12-29T02:47:45;97466.53;;;3.89;97.27
49515;BME280;35415;47.870;16.058;2023-12-29T02:50:12;97482.34;;;4.02;97.36
49515;BME280;35415;47.870;16.058;2023-12-29T02:52:39;97488.88;;;4.06;97.23
49515;BME280;35415;47.870;16.058;2023-12-29T02:55:07;97421.69;;;3.68;97.24
49515;BME280;35415;47.870;16.058;2023-12-29T02:57:36;97419.00;;;3.74;96.98
49515;BME280;35415;47.870;16.058;2023-12-29T03:00:05;97435.81;;;3.68;96.81
49515;BME280;35415;47.870;16.058;2023-12-29T03:02:32;97496.56;;;4.14;97.12
49515;BME280;35415;47.870;16.058;2023-12-29T03:04:59;97459.50;;;3.95;97.00
49515;BME280;35415;47.870;16.058;2023-12-29T03:07:27;97441.47;;;3.78;96.82
49515;BME280;35415;47.870;16.058;2023-12-29T03:09:54;97431.25;;;3.75;97.23
49515;BME280;35415;47.870;16.058;2023-12-29T03:12:22;97456.25;;;3.92;97.17
49515;BME280;35415;47.870;16.058;2023-12-29T03:14:50;97430.50;;;3.68;97.33
49515;BME280;35415;47.870;16.058;2023-12-29T03:17:18;97440.56;;;3.84;97.47
49515;BME280;35415;47.870;16.058;2023-12-29T03:19:45;97427.13;;;3.79;97.15
49515;BME280;35415;47.870;16.058;2023-12-29T03:22:12;97446.06;;;3.89;97.38
49515;BME280;35415;47.870;16.058;2023-12-29T03:24:41;97436.00;;;3.73;97.24
49515;BME280;35415;47.870;16.058;2023-12-29T03:27:08;97409.88;;;3.63;97.30
49515;BME280;35415;47.870;16.058;2023-12-29T03:29:37;97468.09;;;3.97;97.15
49515;BME280;35415;47.870;16.058;2023-12-29T03:32:07;97478.59;;;4.10;97.33
49515;BME280;35415;47.870;16.058;2023-12-29T03:34:34;97474.91;;;4.11;97.00
49515;BME280;35415;47.870;16.058;2023-12-29T03:37:01;97437.50;;;3.87;96.98
49515;BME280;35415;47.870;16.058;2023-12-29T03:39:28;97462.50;;;4.05;97.13
49515;BME280;35415;47.870;16.058;2023-12-29T03:41:57;97450.56;;;3.89;97.02
49515;BME280;35415;47.870;16.058;2023-12-29T03:44:25;97469.81;;;4.09;96.78
49515;BME280;35415;47.870;16.058;2023-12-29T03:46:54;97476.38;;;4.07;96.95
49515;BME280;35415;47.870;16.058;2023-12-29T03:49:24;97483.16;;;4.03;96.83
49515;BME280;35415;47.870;16.058;2023-12-29T03:51:51;97486.59;;;4.10;96.89
49515;BME280;35415;47.870;16.058;2023-12-29T03:54:18;97459.28;;;3.96;96.69
49515;BME280;35415;47.870;16.058;2023-12-29T03:56:47;97416.59;;;3.66;96.20
49515;BME280;35415;47.870;16.058;2023-12-29T03:59:14;97465.94;;;3.87;96.42
49515;BME280;35415;47.870;16.058;2023-12-29T04:01:41;97396.88;;;3.55;96.41
49515;BME280;35415;47.870;16.058;2023-12-29T04:04:09;97421.34;;;3.64;96.38
49515;BME280;35415;47.870;16.058;2023-12-29T04:06:38;97430.16;;;3.83;96.52
49515;BME280;35415;47.870;16.058;2023-12-29T04:09:05;97443.31;;;3.78;96.45
49515;BME280;35415;47.870;16.058;2023-12-29T04:11:33;97442.00;;;3.87;96.27
49515;BME280;35415;47.870;16.058;2023-12-29T04:14:01;97438.34;;;3.81;96.48
49515;BME280;35415;47.870;16.058;2023-12-29T04:16:28;97417.06;;;3.63;96.67
49515;BME280;35415;47.870;16.058;2023-12-29T04:18:55;97476.22;;;4.02;96.21
49515;BME280;35415;47.870;16.058;2023-12-29T04:21:23;97392.88;;;3.46;96.18
49515;BME280;35415;47.870;16.058;2023-12-29T04:23:52;97465.22;;;3.98;96.56
49515;BME280;35415;47.870;16.058;2023-12-29T04:26:19;97475.47;;;3.95;96.38
49515;BME280;35415;47.870;16.058;2023-12-29T04:28:46;97470.53;;;3.98;96.26
49515;BME280;35415;47.870;16.058;2023-12-29T04:31:13;97466.91;;;3.92;96.55
49515;BME280;35415;47.870;16.058;2023-12-29T04:33:41;97448.03;;;3.76;96.21
49515;BME280;35415;47.870;16.058;2023-12-29T04:36:08;97473.41;;;3.97;96.11
49515;BME280;35415;47.870;16.058;2023-12-29T04:38:35;97431.47;;;3.55;96.19
49515;BME280;35415;47.870;16.058;2023-12-29T04:41:04;97483.69;;;3.93;96.52
49515;BME280;35415;47.870;16.058;2023-12-29T04:43:34;97458.91;;;3.74;96.52
49515;BME280;35415;47.870;16.058;2023-12-29T04:46:01;97439.25;;;3.50;96.74
49515;BME280;35415;47.870;16.058;2023-12-29T04:48:29;97449.84;;;3.57;96.37
49515;BME280;35415;47.870;16.058;2023-12-29T04:50:56;97450.06;;;3.55;96.41
49515;BME280;35415;47.870;16.058;2023-12-29T04:53:23;97476.75;;;3.67;96.55
49515;BME280;35415;47.870;16.058;2023-12-29T04:55:50;97461.38;;;3.69;96.86
49515;BME280;35415;47.870;16.058;2023-12-29T04:58:20;97449.66;;;3.52;96.88
49515;BME280;35415;47.870;16.058;2023-12-29T05:00:47;97457.38;;;3.60;97.01
49515;BME280;35415;47.870;16.058;2023-12-29T05:03:14;97414.91;;;3.28;97.08
49515;BME280;35415;47.870;16.058;2023-12-29T05:05:41;97449.88;;;3.50;97.43
49515;BME280;35415;47.870;16.058;2023-12-29T05:08:09;97412.94;;;3.42;97.75
49515;BME280;35415;47.870;16.058;2023-12-29T05:10:36;97374.16;;;3.10;97.92
49515;BME280;35415;47.870;16.058;2023-12-29T05:13:04;97396.06;;;3.30;98.01
49515;BME280;35415;47.870;16.058;2023-12-29T05:15:33;97386.91;;;3.26;98.21
49515;BME280;35415;47.870;16.058;2023-12-29T05:18:01;97438.41;;;3.56;98.61
49515;BME280;35415;47.870;16.058;2023-12-29T05:20:31;97460.78;;;3.67;98.46
49515;BME280;35415;47.870;16.058;2023-12-29T05:22:58;97450.59;;;3.64;98.70
49515;BME280;35415;47.870;16.058;2023-12-29T05:25:28;97445.16;;;3.52;98.59
49515;BME280;35415;47.870;16.058;2023-12-29T05:27:56;97452.81;;;3.67;98.89
49515;BME280;35415;47.870;16.058;2023-12-29T05:30:23;97470.03;;;3.65;98.93
49515;BME280;35415;47.870;16.058;2023-12-29T05:32:54;97448.53;;;3.66;99.42
49515;BME280;35415;47.870;16.058;2023-12-29T05:35:21;97393.84;;;3.27;98.84
49515;BME280;35415;47.870;16.058;2023-12-29T05:37:48;97450.38;;;3.66;99.04
49515;BME280;35415;47.870;16.058;2023-12-29T05:40:16;97428.84;;;3.49;98.82
49515;BME280;35415;47.870;16.058;2023-12-29T05:42:43;97469.19;;;3.71;98.89
49515;BME280;35415;47.870;16.058;2023-12-29T05:45:11;97460.38;;;3.70;98.91
49515;BME280;35415;47.870;16.058;2023-12-29T05:47:38;97397.56;;;3.26;98.52
49515;BME280;35415;47.870;16.058;2023-12-29T05:50:08;97458.56;;;3.64;98.75
49515;BME280;35415;47.870;16.058;2023-12-29T05:52:35;97442.72;;;3.51;98.97
49515;BME280;35415;47.870;16.058;2023-12-29T05:55:03;97460.31;;;3.52;98.44
49515;BME280;35415;47.870;16.058;2023-12-29T05:57:33;97481.34;;;3.60;98.86
49515;BME280;35415;47.870;16.058;2023-12-29T06:00:00;97486.34;;;3.68;98.99
49515;BME280;35415;47.870;16.058;2023-12-29T06:02:28;97470.53;;;3.55;98.71
49515;BME280;35415;47.870;16.058;2023-12-29T06:04:55;97488.00;;;3.69;98.45
49515;BME280;35415;47.870;16.058;2023-12-29T06:07:24;97423.91;;;3.27;98.73
49515;BME280;35415;47.870;16.058;2023-12-29T06:09:52;97472.97;;;3.56;98.44
49515;BME280;35415;47.870;16.058;2023-12-29T06:12:19;97441.50;;;3.28;98.39
49515;BME280;35415;47.870;16.058;2023-12-29T06:14:46;97407.75;;;3.04;98.67
49515;BME280;35415;47.870;16.058;2023-12-29T06:17:13;97509.94;;;3.65;98.18
49515;BME280;35415;47.870;16.058;2023-12-29T06:19:41;97521.16;;;3.67;98.60
49515;BME280;35415;47.870;16.058;2023-12-29T06:22:11;97416.94;;;3.01;97.98
49515;BME280;35415;47.870;16.058;2023-12-29T06:24:41;97502.44;;;3.55;98.29
49515;BME280;35415;47.870;16.058;2023-12-29T06:27:09;97524.31;;;3.57;98.68
49515;BME280;35415;47.870;16.058;2023-12-29T06:29:36;97491.41;;;3.26;98.42
49515;BME280;35415;47.870;16.058;2023-12-29T06:32:04;97533.78;;;3.53;98.33
49515;BME280;35415;47.870;16.058;2023-12-29T06:34:31;97501.81;;;3.28;98.77
49515;BME280;35415;47.870;16.058;2023-12-29T06:37:00;97479.38;;;3.17;98.46
49515;BME280;35415;47.870;16.058;2023-12-29T06:39:28;97483.88;;;3.23;98.95
49515;BME280;35415;47.870;16.058;2023-12-29T06:41:57;97484.69;;;3.24;98.89
49515;BME280;35415;47.870;16.058;2023-12-29T06:44:24;97500.84;;;3.22;98.95
49515;BME280;35415;47.870;16.058;2023-12-29T06:46:51;97428.50;;;2.89;99.19
49515;BME280;35415;47.870;16.058;2023-12-29T06:49:19;97443.66;;;2.82;98.92
49515;BME280;35415;47.870;16.058;2023-12-29T06:51:45;97430.41;;;2.75;99.53
49515;BME280;35415;47.870;16.058;2023-12-29T06:54:12;97454.66;;;2.85;99.59
49515;BME280;35415;47.870;16.058;2023-12-29T06:56:40;97485.41;;;3.06;99.65
49515;BME280;35415;47.870;16.058;2023-12-29T06:59:08;97478.69;;;3.04;99.98
49515;BME280;35415;47.870;16.058;2023-12-29T07:01:38;97503.31;;;3.17;100.00
49515;BME280;35415;47.870;16.058;2023-12-29T07:04:06;97503.72;;;3.21;100.00
49515;BME280;35415;47.870;16.058;2023-12-29T07:06:35;97507.41;;;3.20;100.00
49515;BME280;35415;47.870;16.058;2023-12-29T07:09:03;97487.28;;;2.99;100.00
49515;BME280;35415;47.870;16.058;2023-12-29T07:11:30;97504.00;;;3.06;100.00
49515;BME280;35415;47.870;16.058;2023-12-29T07:13:57;97480.59;;;2.90;100.00
49515;BME280;35415;47.870;16.058;2023-12-29T07:16:26;97479.03;;;2.76;100.00
49515;BME280;35415;47.870;16.058;2023-12-29T07:18:53;97516.13;;;2.95;100.00
49515;BME280;35415;47.870;16.058;2023-12-29T07:21:21;97492.66;;;2.92;100.00
49515;BME280;35415;47.870;16.058;2023-12-29T07:23:48;97455.59;;;2.66;100.00
49515;BME280;35415;47.870;16.058;2023-12-29T07:26:16;97455.41;;;2.61;100.00
49515;BME280;35415;47.870;16.058;2023-12-29T07:28:43;97459.06;;;2.66;100.00
49515;BME280;35415;47.870;16.058;2023-12-29T07:31:11;97503.69;;;2.89;100.00
49515;BME280;35415;47.870;16.058;2023-12-29T07:33:40;97453.19;;;2.58;100.00
49515;BME280;35415;47.870;16.058;2023-12-29T07:36:08;97499.06;;;2.78;100.00
49515;BME280;35415;47.870;16.058;2023-12-29T07:38:35;97501.03;;;2.89;100.00
49515;BME280;35415;47.870;16.058;2023-12-29T07:41:03;97439.31;;;2.49;100.00
49515;BME280;35415;47.870;16.058;2023-12-29T07:43:33;97461.72;;;2.66;100.00
49515;BME280;35415;47.870;16.058;2023-12-29T07:46:01;97456.81;;;2.63;100.00
49515;BME280;35415;47.870;16.058;2023-12-29T07:48:29;97450.50;;;2.64;100.00
49515;BME280;35415;47.870;16.058;2023-12-29T07:51:04;97501.84;;;2.90;100.00
49515;BME280;35415;47.870;16.058;2023-12-29T07:53:32;97497.41;;;2.77;100.00
49515;BME280;35415;47.870;16.058;2023-12-29T07:55:59;97431.19;;;2.44;100.00
49515;BME280;35415;47.870;16.058;2023-12-29T07:58:26;97483.94;;;2.79;100.00
49515;BME280;35415;47.870;16.058;2023-12-29T08:00:54;97430.13;;;2.52;100.00
49515;BME280;35415;47.870;16.058;2023-12-29T08:03:21;97469.84;;;2.78;100.00
49515;BME280;35415;47.870;16.058;2023-12-29T08:05:48;97415.44;;;2.49;100.00
49515;BME280;35415;47.870;16.058;2023-12-29T08:08:17;97503.44;;;2.97;100.00
49515;BME280;35415;47.870;16.058;2023-12-29T08:10:45;97474.22;;;2.97;100.00
49515;BME280;35415;47.870;16.058;2023-12-29T08:13:12;97454.47;;;2.87;100.00
49515;BME280;35415;47.870;16.058;2023-12-29T08:15:40;97465.28;;;2.85;100.00
49515;BME280;35415;47.870;16.058;2023-12-29T08:18:08;97460.75;;;2.92;100.00
49515;BME280;35415;47.870;16.058;2023-12-29T08:20:38;97489.69;;;3.07;100.00
49515;BME280;35415;47.870;16.058;2023-12-29T08:23:05;97453.25;;;2.83;100.00
49515;BME280;35415;47.870;16.058;2023-12-29T08:25:38;97526.94;;;3.32;100.00
49515;BME280;35415;47.870;16.058;2023-12-29T08:28:05;97479.50;;;3.04;100.00
49515;BME280;35415;47.870;16.058;2023-12-29T08:30:34;97498.88;;;3.11;100.00
49515;BME280;35415;47.870;16.058;2023-12-29T08:33:09;97468.91;;;2.97;100.00
49515;BME280;35415;47.870;16.058;2023-12-29T08:35:39;97495.75;;;3.21;100.00
49515;BME280;35415;47.870;16.058;2023-12-29T08:38:06;97538.22;;;3.59;100.00
49515;BME280;35415;47.870;16.058;2023-12-29T08:40:38;97487.50;;;3.29;100.00
49515;BME280;35415;47.870;16.058;2023-12-29T08:43:08;97516.81;;;3.47;100.00
49515;BME280;35415;47.870;16.058;2023-12-29T08:45:38;97507.22;;;3.46;100.00
49515;BME280;35415;47.870;16.058;2023-12-29T08:48:07;97478.88;;;3.33;100.00
49515;BME280;35415;47.870;16.058;2023-12-29T08:50:34;97508.41;;;3.50;100.00
49515;BME280;35415;47.870;16.058;2023-12-29T08:53:01;97551.09;;;3.87;100.00
49515;BME280;35415;47.870;16.058;2023-12-29T08:55:30;97487.13;;;3.50;99.62
49515;BME280;35415;47.870;16.058;2023-12-29T08:58:02;97521.88;;;3.80;99.30
49515;BME280;35415;47.870;16.058;2023-12-29T09:00:34;97491.28;;;3.71;98.62
49515;BME280;35415;47.870;16.058;2023-12-29T09:03:01;97519.84;;;4.01;98.73
49515;BME280;35415;47.870;16.058;2023-12-29T09:05:28;97513.13;;;3.98;97.06
49515;BME280;35415;47.870;16.058;2023-12-29T09:07:56;97511.63;;;4.02;96.20
49515;BME280;35415;47.870;16.058;2023-12-29T09:10:23;97548.16;;;4.38;95.62
49515;BME280;35415;47.870;16.058;2023-12-29T09:12:51;97543.56;;;4.45;95.33
49515;BME280;35415;47.870;16.058;2023-12-29T09:15:20;97526.03;;;4.38;94.86
49515;BME280;35415;47.870;16.058;2023-12-29T09:17:49;97532.19;;;4.38;94.86
49515;BME280;35415;47.870;16.058;2023-12-29T09:20:18;97556.88;;;4.64;94.60
49515;BME280;35415;47.870;16.058;2023-12-29T09:22:45;97435.88;;;4.05;94.03
49515;BME280;35415;47.870;16.058;2023-12-29T09:25:13;97493.47;;;4.36;94.15
49515;BME280;35415;47.870;16.058;2023-12-29T09:27:41;97524.09;;;4.63;93.92
49515;BME280;35415;47.870;16.058;2023-12-29T09:30:10;97534.75;;;4.81;93.68
49515;BME280;35415;47.870;16.058;2023-12-29T09:32:39;97423.38;;;4.23;92.98
49515;BME280;35415;47.870;16.058;2023-12-29T09:35:06;97482.22;;;4.70;93.50
49515;BME280;35415;47.870;16.058;2023-12-29T09:37:34;97495.34;;;4.83;92.37
49515;BME280;35415;47.870;16.058;2023-12-29T09:40:01;97492.88;;;5.00;91.38
49515;BME280;35415;47.870;16.058;2023-12-29T09:42:30;97423.78;;;4.69;90.19
49515;BME280;35415;47.870;16.058;2023-12-29T09:45:00;97460.34;;;5.10;90.30
49515;BME280;35415;47.870;16.058;2023-12-29T09:47:31;97519.72;;;5.59;88.03
49515;BME280;35415;47.870;16.058;2023-12-29T09:50:00;97392.97;;;5.03;88.89
49515;BME280;35415;47.870;16.058;2023-12-29T09:52:29;97469.47;;;5.44;89.10
49515;BME280;35415;47.870;16.058;2023-12-29T09:54:59;97446.97;;;5.52;87.76
49515;BME280;35415;47.870;16.058;2023-12-29T09:57:29;97504.44;;;5.89;86.83
49515;BME280;35415;47.870;16.058;2023-12-29T09:59:57;97494.34;;;6.03;86.75
49515;BME280;35415;47.870;16.058;2023-12-29T10:02:26;97487.88;;;6.11;86.39
49515;BME280;35415;47.870;16.058;2023-12-29T10:04:53;97486.47;;;6.08;86.29
49515;BME280;35415;47.870;16.058;2023-12-29T10:07:24;97470.81;;;6.12;86.09
49515;BME280;35415;47.870;16.058;2023-12-29T10:09:54;97449.44;;;6.12;85.25
49515;BME280;35415;47.870;16.058;2023-12-29T10:12:23;97406.47;;;6.01;85.16
49515;BME280;35415;47.870;16.058;2023-12-29T10:14:56;97458.22;;;6.36;84.61
49515;BME280;35415;47.870;16.058;2023-12-29T10:17:38;97427.00;;;6.24;84.84
49515;BME280;35415;47.870;16.058;2023-12-29T10:20:15;97421.53;;;6.31;84.26
49515;BME280;35415;47.870;16.058;2023-12-29T10:22:53;97420.13;;;6.28;83.21
49515;BME280;35415;47.870;16.058;2023-12-29T10:25:23;97427.66;;;6.43;84.89
49515;BME280;35415;47.870;16.058;2023-12-29T10:27:51;97445.03;;;6.57;82.64
49515;BME280;35415;47.870;16.058;2023-12-29T10:30:18;97390.91;;;6.50;82.57
49515;BME280;35415;47.870;16.058;2023-12-29T10:32:49;97451.16;;;6.98;81.51
49515;BME280;35415;47.870;16.058;2023-12-29T10:35:19;97449.84;;;7.01;79.74
49515;BME280;35415;47.870;16.058;2023-12-29T10:37:46;97456.97;;;7.23;81.02
49515;BME280;35415;47.870;16.058;2023-12-29T10:40:18;97391.84;;;7.01;79.96
49515;BME280;35415;47.870;16.058;2023-12-29T10:42:53;97381.06;;;7.13;78.31
49515;BME280;35415;47.870;16.058;2023-12-29T10:45:21;97406.78;;;7.47;80.39
49515;BME280;35415;47.870;16.058;2023-12-29T10:47:56;97338.91;;;7.20;80.39
49515;BME280;35415;47.870;16.058;2023-12-29T10:50:26;97353.25;;;7.47;76.66
49515;BME280;35415;47.870;16.058;2023-12-29T10:53:12;97383.47;;;7.81;80.14
49515;BME280;35415;47.870;16.058;2023-12-29T10:55:43;97411.63;;;8.06;80.92
49515;BME280;35415;47.870;16.058;2023-12-29T10:58:11;97362.28;;;7.80;76.09
49515;BME280;35415;47.870;16.058;2023-12-29T11:00:38;97340.00;;;7.74;75.27
49515;BME280;35415;47.870;16.058;2023-12-29T11:03:05;97344.81;;;7.94;72.67
49515;BME280;35415;47.870;16.058;2023-12-29T11:05:33;97360.81;;;8.11;71.84
49515;BME280;35415;47.870;16.058;2023-12-29T11:08:02;97397.72;;;8.48;71.15
49515;BME280;35415;47.870;16.058;2023-12-29T11:10:43;97363.91;;;8.41;71.39
49515;BME280;35415;47.870;16.058;2023-12-29T11:13:11;97359.19;;;8.54;71.35
49515;BME280;35415;47.870;16.058;2023-12-29T11:15:42;97368.31;;;8.80;69.84
49515;BME280;35415;47.870;16.058;2023-12-29T11:18:13;97359.47;;;8.79;67.66
49515;BME280;35415;47.870;16.058;2023-12-29T11:20:42;97381.16;;;9.04;68.51
49515;BME280;35415;47.870;16.058;2023-12-29T11:23:10;97361.63;;;9.09;67.59
49515;BME280;35415;47.870;16.058;2023-12-29T11:25:38;97312.91;;;8.90;65.49
49515;BME280;35415;47.870;16.058;2023-12-29T11:28:09;97359.69;;;9.37;65.53
49515;BME280;35415;47.870;16.058;2023-12-29T11:30:37;97348.38;;;9.34;63.47
49515;BME280;35415;47.870;16.058;2023-12-29T11:33:10;97371.84;;;9.49;64.67
49515;BME280;35415;47.870;16.058;2023-12-29T11:35:44;97310.66;;;9.14;65.29
49515;BME280;35415;47.870;16.058;2023-12-29T11:38:25;97307.28;;;9.29;65.00
49515;BME280;35415;47.870;16.058;2023-12-29T11:41:02;97304.34;;;9.30;64.92
49515;BME280;35415;47.870;16.058;2023-12-29T11:43:34;97323.75;;;9.43;65.02
49515;BME280;35415;47.870;16.058;2023-12-29T11:46:02;97343.75;;;9.62;63.40
49515;BME280;35415;47.870;16.058;2023-12-29T11:48:55;97340.03;;;9.73;65.38
49515;BME280;35415;47.870;16.058;2023-12-29T11:51:33;97318.41;;;9.48;63.37
49515;BME280;35415;47.870;16.058;2023-12-29T11:54:02;97337.63;;;9.72;62.15
49515;BME280;35415;47.870;16.058;2023-12-29T11:56:38;97305.00;;;9.53;64.67
49515;BME280;35415;47.870;16.058;2023-12-29T11:59:17;97329.53;;;9.67;64.85
49515;BME280;35415;47.870;16.058;2023-12-29T12:01:50;97330.69;;;9.76;64.88
49515;BME280;35415;47.870;16.058;2023-12-29T12:04:37;97346.03;;;9.90;66.99
49515;BME280;35415;47.870;16.058;2023-12-29T12:07:10;97286.47;;;9.51;67.65
49515;BME280;35415;47.870;16.058;2023-12-29T12:09:40;97276.81;;;9.50;66.73
49515;BME280;35415;47.870;16.058;2023-12-29T12:12:07;97344.44;;;9.89;67.86
49515;BME280;35415;47.870;16.058;2023-12-29T12:14:49;97323.16;;;9.78;68.40
49515;BME280;35415;47.870;16.058;2023-12-29T12:17:30;97318.38;;;9.90;69.00
49515;BME280;35415;47.870;16.058;2023-12-29T12:20:04;97293.84;;;9.71;68.11
49515;BME280;35415;47.870;16.058;2023-12-29T12:22:35;97304.84;;;9.70;67.84
49515;BME280;35415;47.870;16.058;2023-12-29T12:25:04;97313.19;;;9.73;68.35
49515;BME280;35415;47.870;16.058;2023-12-29T12:27:37;97328.03;;;9.86;69.03
49515;BME280;35415;47.870;16.058;2023-12-29T12:30:07;97330.44;;;9.87;70.88
49515;BME280;35415;47.870;16.058;2023-12-29T12:32:35;97322.66;;;9.86;70.02
49515;BME280;35415;47.870;16.058;2023-12-29T12:35:03;97328.03;;;9.86;70.34
49515;BME280;35415;47.870;16.058;2023-12-29T12:37:42;97249.41;;;9.43;69.51
49515;BME280;35415;47.870;16.058;2023-12-29T12:40:24;97271.19;;;9.52;69.18
49515;BME280;35415;47.870;16.058;2023-12-29T12:42:51;97330.19;;;9.89;69.28
49515;BME280;35415;47.870;16.058;2023-12-29T12:45:21;97262.00;;;9.43;69.31
49515;BME280;35415;47.870;16.058;2023-12-29T12:47:52;97281.66;;;9.53;68.13
49515;BME280;35415;47.870;16.058;2023-12-29T12:50:21;97324.06;;;9.93;71.03
49515;BME280;35415;47.870;16.058;2023-12-29T12:52:48;97340.97;;;9.94;71.09
49515;BME280;35415;47.870;16.058;2023-12-29T12:55:20;97332.66;;;9.95;71.26
49515;BME280;35415;47.870;16.058;2023-12-29T12:57:47;97284.16;;;9.65;70.81
49515;BME280;35415;47.870;16.058;2023-12-29T13:00:15;97289.06;;;9.78;70.34
49515;BME280;35415;47.870;16.058;2023-12-29T13:02:46;97338.59;;;10.03;72.26
49515;BME280;35415;47.870;16.058;2023-12-29T13:05:18;97319.19;;;9.90;71.67
49515;BME280;35415;47.870;16.058;2023-12-29T13:07:52;97268.84;;;9.65;71.27